Terminal Aerodrome Forecast
Issued by NWS

Current Version | Previous Version | Graphics & Text | Print | Product List | Glossary On
Versions: 1 2 3 4 5 6 7 8 9 10 11 12 13 14 15 16 17 18 19 20 21
000
FTUS41 KRLX 250907 AAA
TAFCKB
TAF AMD
KCKB 250907Z 2509/2606 15004KT 5SM -SHRA BR BKN035 OVC080
      TEMPO 2509/2511 2SM -SHRA BR BKN018
     FM251100 18005KT P6SM SHRA OVC013
     FM251700 22009KT P6SM SHRA BKN035=

USA.gov is the U.S. government's official web portal to all federal, state and local government web resources and services.